Furrs, Mississippi
Current Conditions -  °F | °C
As of 11:53 PM on Friday 19 Dec 2014 (Local Time) from KTUP Reporting Station
Overcast Overcast  
Wind Chill: 37°   Ceiling: 7500
Heat Index: 40°   Visibility: 10mi
Dew Point: 35°   Wind: 5mph
Humidity: 83%   Direction: 40°NE
Pressure: 30.21"   Gusts: NA
Location:  34.1762°N, 88.9612°W
Report Text: KTUP 200553Z AUTO 04004KT 10SM OVC075 04/02 A3021 RMK AO2 SLP230 60001 T00440017 10061 20044 400780044 58003
Loading
Personal Weather Stations






























Interactive Weather Map New forecast layout! Learn more

10-Day Weather Forecast

Advertisements
Track Severe Weather on mobile